Time;durP1;ratioP1;P1;durP2;ratioP2;P2;SDS_P1;SDS_P2;PMS_P1;PMS_P2;Temp;Humidity;BMP_temperature;BMP_pressure;BME280_temperature;BME280_humidity;BME280_pressure;Samples;Min_cycle;Max_cycle;Signal;HPM_P1;HPM_P2
2022/12/13 00:00:18;;;;;;;17.08;9.23;;;;;;;-0.94;76.97;100769.91;5042842;28;20197;-73
2022/12/13 00:02:49;;;;;;;11.73;8.48;;;;;;;-0.84;78.13;100772.63;5051901;28;20713;-72
2022/12/13 00:05:21;;;;;;;14.23;7.20;;;;;;;-0.92;78.52;100773.28;5060763;28;20754;-73
2022/12/13 00:07:58;;;;;;;19.52;9.88;;;;;;;-0.89;78.37;100762.38;5079401;28;20656;-72
2022/12/13 00:10:30;;;;;;;15.98;8.35;;;;;;;-0.83;77.57;100761.03;5080581;28;20321;-74
2022/12/13 00:13:03;;;;;;;14.05;8.35;;;;;;;-0.83;77.46;100761.88;5083505;28;20249;-72
2022/12/13 00:15:38;;;;;;;14.95;7.93;;;;;;;-0.90;77.74;100772.16;5065735;28;20199;-73
2022/12/13 00:18:08;;;;;;;18.42;9.95;;;;;;;-0.92;78.52;100767.97;5065794;28;20207;-73
2022/12/13 00:20:41;;;;;;;10.63;8.23;;;;;;;-0.90;78.32;100766.00;5083039;28;20204;-73
2022/12/13 00:23:13;;;;;;;9.93;8.35;;;;;;;-0.90;78.59;100766.00;5075502;28;20324;-73
2022/12/13 00:25:45;;;;;;;11.48;7.53;;;;;;;-0.90;78.53;100760.69;5067735;28;20204;-73
2022/12/13 00:28:19;;;;;;;15.25;9.40;;;;;;;-0.92;79.16;100762.66;5064113;28;20226;-73
2022/12/13 00:31:03;;;;;;;14.75;9.20;;;;;;;-0.91;79.15;100753.69;5066666;28;20199;-72
2022/12/13 00:33:57;;;;;;;15.95;10.10;;;;;;;-0.94;78.24;100754.81;5067317;28;20221;-72
2022/12/13 00:36:39;;;;;;;11.10;6.40;;;;;;;-0.88;78.99;100748.13;5087155;28;20172;-73
2022/12/13 00:39:12;;;;;;;14.95;7.78;;;;;;;-1.00;79.23;100738.56;5085462;28;20188;-73
2022/12/13 00:41:45;;;;;;;11.20;6.68;;;;;;;-0.93;79.09;100737.06;5085552;28;20261;-72
2022/12/13 00:44:17;;;;;;;19.50;7.45;;;;;;;-0.96;78.84;100729.34;5063996;28;20680;-73
2022/12/13 00:46:52;;;;;;;11.70;7.72;;;;;;;-1.01;78.64;100732.41;5062918;28;20619;-72
2022/12/13 00:49:22;;;;;;;17.25;8.40;;;;;;;-1.01;79.06;100727.09;5073887;28;20196;-72
2022/12/13 00:51:56;;;;;;;18.33;9.30;;;;;;;-0.96;79.40;100721.38;5046220;28;20193;-71
2022/12/13 00:54:31;;;;;;;20.73;9.93;;;;;;;-0.91;78.73;100735.09;5065458;28;20215;-72
2022/12/13 00:57:03;;;;;;;10.63;7.35;;;;;;;-1.07;77.71;100732.94;5076297;28;20287;-71
2022/12/13 00:59:36;;;;;;;16.40;8.15;;;;;;;-1.13;78.27;100729.97;5078813;28;20192;-73
2022/12/13 01:02:16;;;;;;;14.82;8.95;;;;;;;-1.06;78.53;100725.78;5060863;28;20188;-71
2022/12/13 01:05:00;;;;;;;11.00;8.48;;;;;;;-1.15;78.14;100727.44;5040121;28;20694;-72
2022/12/13 01:07:32;;;;;;;11.68;6.50;;;;;;;-1.11;77.75;100728.84;5062262;28;20623;-73
2022/12/13 01:10:07;;;;;;;9.20;6.30;;;;;;;-1.18;77.49;100729.50;5073268;28;20283;-73
2022/12/13 01:12:39;;;;;;;14.80;7.35;;;;;;;-1.19;77.53;100727.81;5063645;28;20218;-72
2022/12/13 01:15:10;;;;;;;12.45;7.35;;;;;;;-1.15;76.72;100732.75;5069136;28;20216;-73
2022/12/13 01:17:46;;;;;;;8.55;6.97;;;;;;;-1.05;77.49;100730.13;5083247;28;20188;-72
2022/12/13 01:20:16;;;;;;;13.00;7.45;;;;;;;-1.06;76.78;100725.78;5082579;28;20214;-74
2022/12/13 01:22:47;;;;;;;10.75;7.10;;;;;;;-1.00;76.66;100733.25;5082241;28;20200;-72
2022/12/13 01:25:18;;;;;;;16.05;8.25;;;;;;;-1.03;75.85;100728.19;5081279;28;20231;-72
2022/12/13 01:27:49;;;;;;;14.20;8.32;;;;;;;-1.15;75.67;100723.94;5065034;28;20278;-72
2022/12/13 01:30:24;;;;;;;15.60;7.60;;;;;;;-1.02;76.70;100729.91;5081241;28;20187;-72
2022/12/13 01:32:57;;;;;;;16.45;8.57;;;;;;;-0.98;76.44;100726.00;5060011;28;20224;-72
2022/12/13 01:35:30;;;;;;;14.77;7.20;;;;;;;-0.98;76.37;100724.19;5039696;28;20192;-73
2022/12/13 01:38:02;;;;;;;12.75;8.65;;;;;;;-0.93;76.70;100727.28;5072314;28;20274;-73
2022/12/13 01:40:47;;;;;;;13.88;8.20;;;;;;;-0.94;76.83;100728.25;5039607;28;20205;-73
2022/12/13 01:43:18;;;;;;;14.95;6.18;;;;;;;-0.86;77.70;100724.91;5065742;28;20244;-73
2022/12/13 01:45:50;;;;;;;12.73;7.85;;;;;;;-1.04;77.84;100721.19;5064553;28;20291;-73
2022/12/13 01:48:28;;;;;;;19.13;9.07;;;;;;;-1.14;78.36;100715.00;5056875;28;20283;-73
2022/12/13 01:51:07;;;;;;;18.80;8.30;;;;;;;-0.99;79.23;100719.00;5071587;28;20216;-74
2022/12/13 01:53:44;;;;;;;12.35;7.55;;;;;;;-1.10;78.93;100719.06;5050802;28;20223;-73
2022/12/13 01:56:22;;;;;;;14.90;9.18;;;;;;;-1.03;78.62;100728.19;5051190;28;20195;-74
2022/12/13 01:58:57;;;;;;;15.90;9.45;;;;;;;-1.07;78.85;100716.16;5067735;28;20200;-72
2022/12/13 02:01:29;;;;;;;15.85;8.30;;;;;;;-1.11;79.29;100720.03;5056210;28;20192;-72
2022/12/13 02:04:02;;;;;;;10.98;8.00;;;;;;;-1.01;79.21;100718.28;5073541;28;20243;-73
2022/12/13 02:06:37;;;;;;;13.82;9.38;;;;;;;-0.88;78.51;100716.25;5064493;28;20208;-71
2022/12/13 02:09:11;;;;;;;14.05;8.57;;;;;;;-1.04;77.59;100711.41;5080543;28;20209;-72
2022/12/13 02:11:43;;;;;;;14.10;8.75;;;;;;;-0.97;78.23;100711.75;5069237;28;20196;-72
2022/12/13 02:14:14;;;;;;;20.15;9.43;;;;;;;-1.08;77.34;100709.16;5074388;28;20707;-72
2022/12/13 02:17:03;;;;;;;12.65;8.18;;;;;;;-1.14;78.44;100712.34;5054401;28;20610;-73
2022/12/13 02:20:21;;;;;;;17.45;9.40;;;;;;;-1.13;78.04;100700.75;5080663;28;20208;-73
2022/12/13 02:23:28;;;;;;;14.70;7.60;;;;;;;-1.06;77.98;100707.19;5060908;28;20216;-73
2022/12/13 02:26:35;;;;;;;15.73;7.88;;;;;;;-0.99;77.23;100713.69;5046960;28;20231;-74
2022/12/13 02:29:40;;;;;;;9.68;5.50;;;;;;;-0.95;77.44;100715.09;5019955;28;20226;-73
2022/12/13 02:32:22;;;;;;;17.33;9.95;;;;;;;-0.94;78.13;100716.78;5065673;28;20218;-72
2022/12/13 02:35:04;;;;;;;11.00;7.03;;;;;;;-0.89;77.79;100715.41;5059988;28;20216;-71
2022/12/13 02:37:46;;;;;;;13.18;8.80;;;;;;;-0.73;78.23;100714.09;5064132;28;20206;-71
2022/12/13 02:40:25;;;;;;;10.88;6.88;;;;;;;-0.74;78.24;100705.25;5072633;28;20287;-73
2022/12/13 02:43:09;;;;;;;12.02;7.53;;;;;;;-0.82;77.99;100707.72;5067104;28;20298;-72
2022/12/13 02:45:45;;;;;;;21.05;8.18;;;;;;;-0.98;78.31;100715.38;5074298;28;20680;-71
2022/12/13 02:48:25;;;;;;;12.35;8.25;;;;;;;-0.97;78.39;100711.75;5056302;28;20195;-72
2022/12/13 02:51:46;;;;;;;19.17;9.35;;;;;;;-1.05;78.76;100714.19;5048559;28;20265;-72
2022/12/13 02:54:17;;;;;;;16.88;10.15;;;;;;;-1.04;79.47;100705.25;5042746;28;20222;-72
2022/12/13 02:56:56;;;;;;;35.30;9.30;;;;;;;-0.94;79.39;100706.16;5069182;28;20200;-74
2022/12/13 02:59:31;;;;;;;18.42;10.63;;;;;;;-0.85;79.46;100705.34;5062373;28;20290;-72
2022/12/13 03:02:15;;;;;;;17.50;10.55;;;;;;;-1.00;79.94;100696.06;5049341;28;20200;-72
2022/12/13 03:08:17;;;;;;;15.15;8.95;;;;;;;-0.92;79.63;100709.53;5050036;28;20296;-73
2022/12/13 03:10:57;;;;;;;13.77;8.15;;;;;;;-0.81;79.84;100700.59;5036892;28;20220;-72
2022/12/13 03:13:36;;;;;;;19.33;12.70;;;;;;;-0.75;79.67;100700.91;5066484;28;20210;-71
2022/12/13 03:16:17;;;;;;;18.25;10.95;;;;;;;-0.87;79.73;100702.81;5052602;28;20196;-73
2022/12/13 03:18:54;;;;;;;15.90;10.65;;;;;;;-0.95;80.42;100709.78;5049055;28;20200;-73
2022/12/13 03:21:27;;;;;;;15.10;9.23;;;;;;;-0.84;80.47;100707.03;5053207;28;20563;-73
2022/12/13 03:23:57;;;;;;;16.65;9.85;;;;;;;-0.81;80.11;100700.59;5103113;22;20313;-83
2022/12/13 03:58:35;;;;;;;23.05;9.20;;;;;;;-1.26;82.60;100684.19;5049520;28;20212;-81
2022/12/13 04:14:56;;;;;;;17.92;10.32;;;;;;;-1.24;82.84;100676.94;5017049;28;20737;-82
2022/12/13 08:42:01;;;;;;;20.92;13.52;;;;;;;-0.89;81.33;100784.47;4879014;29;20225;-83
2022/12/13 08:44:52;;;;;;;24.23;13.57;;;;;;;-0.88;80.53;100788.00;4941764;29;20224;-84
2022/12/13 08:47:27;;;;;;;29.55;14.15;;;;;;;-0.97;79.88;100784.28;4963880;29;20180;-84
2022/12/13 08:50:05;;;;;;;31.27;16.20;;;;;;;-0.96;79.84;100787.78;4948233;29;20239;-83
2022/12/13 08:52:43;;;;;;;23.20;14.18;;;;;;;-1.09;80.64;100788.00;4962548;29;20588;-83
2022/12/13 08:55:14;;;;;;;30.02;14.05;;;;;;;-1.06;80.13;100797.50;4964531;28;20703;-83
2022/12/13 08:57:46;;;;;;;23.63;14.18;;;;;;;-1.10;80.44;100794.25;5055090;28;20313;-83
2022/12/13 09:00:29;;;;;;;26.50;11.65;;;;;;;-1.03;79.59;100792.78;5044486;28;20176;-84
2022/12/13 09:03:08;;;;;;;28.48;14.95;;;;;;;-0.94;79.16;100791.16;5061677;28;20177;-84
2022/12/13 09:06:18;;;;;;;20.80;12.50;;;;;;;-1.02;79.49;100798.94;5120839;22;20235;-70
2022/12/13 09:08:49;;;;;;;24.38;13.05;;;;;;;-1.11;79.22;100795.22;5083268;28;20608;-70
2022/12/13 09:11:20;;;;;;;17.05;12.38;;;;;;;-0.85;79.46;100790.38;5084549;28;20192;-69
2022/12/13 09:14:05;;;;;;;19.88;12.50;;;;;;;-0.98;78.81;100795.06;5094290;28;20179;-71
2022/12/13 09:16:41;;;;;;;25.13;13.85;;;;;;;-0.99;78.50;100798.69;5095690;28;20195;-71
2022/12/13 09:19:21;;;;;;;26.02;13.82;;;;;;;-1.20;78.64;100795.16;5107082;22;20247;-79
2022/12/13 09:21:55;;;;;;;30.80;13.95;;;;;;;-1.24;79.30;100793.75;5069581;28;20188;-80
2022/12/13 09:24:31;;;;;;;21.90;12.52;;;;;;;-1.17;79.22;100797.59;5082701;28;20176;-79
2022/12/13 09:27:08;;;;;;;26.23;15.32;;;;;;;-0.98;80.31;100803.03;5074783;28;20197;-80
2022/12/13 09:30:24;;;;;;;23.77;13.35;;;;;;;-0.76;78.95;100802.00;5048993;28;20197;-81
2022/12/13 09:40:32;;;;;;;33.92;14.07;;;;;;;-0.86;78.89;100799.31;5080867;28;20192;-80
2022/12/13 09:43:17;;;;;;;28.55;15.27;;;;;;;-0.79;78.86;100799.63;5085463;28;20195;-80
2022/12/13 09:46:17;;;;;;;23.88;12.20;;;;;;;-0.87;78.67;100802.94;5082127;28;20216;-79
2022/12/13 09:48:58;;;;;;;19.98;11.43;;;;;;;-0.70;78.65;100797.03;5089058;28;20175;-78
2022/12/13 09:51:48;;;;;;;30.27;15.10;;;;;;;-0.62;78.69;100791.03;5087162;28;20594;-79
2022/12/13 09:54:54;;;;;;;15.57;11.77;;;;;;;-0.77;77.93;100793.19;5082551;28;20690;-81
2022/12/13 10:01:07;;;;;;;20.27;12.35;;;;;;;-0.85;78.19;100785.06;5060487;28;20211;-81
2022/12/13 10:03:37;;;;;;;23.00;13.90;;;;;;;-0.82;79.27;100787.44;5061161;28;20177;-80
2022/12/13 10:06:18;;;;;;;23.90;12.98;;;;;;;-0.84;79.21;100792.06;5061929;28;20212;-81
2022/12/13 10:08:54;;;;;;;25.50;14.35;;;;;;;-0.84;78.57;100786.75;5059515;28;20201;-81
2022/12/13 10:11:28;;;;;;;19.10;10.98;;;;;;;-0.99;79.00;100790.72;5060107;28;20200;-79
2022/12/13 10:14:04;;;;;;;26.27;12.98;;;;;;;-0.94;79.47;100797.31;5061604;28;20199;-80
2022/12/13 10:16:44;;;;;;;23.05;13.45;;;;;;;-0.72;79.86;100785.66;5071122;28;20211;-79
2022/12/13 10:19:18;;;;;;;20.08;12.02;;;;;;;-0.65;78.89;100800.13;5080977;28;20195;-79
2022/12/13 10:21:57;;;;;;;20.02;10.50;;;;;;;-0.50;78.84;100795.31;5080170;28;20176;-81
2022/12/13 10:24:47;;;;;;;19.45;12.80;;;;;;;-0.67;77.96;100796.75;5079465;28;20180;-79
2022/12/13 10:27:20;;;;;;;19.70;12.95;;;;;;;-0.89;78.72;100783.63;5039885;28;20284;-80
2022/12/13 10:30:06;;;;;;;18.98;11.80;;;;;;;-0.69;77.72;100785.44;5074761;28;20192;-81
2022/12/13 10:32:50;;;;;;;19.58;11.13;;;;;;;-0.86;77.10;100775.38;5081919;28;20589;-80
2022/12/13 10:36:28;;;;;;;17.08;10.00;;;;;;;-1.03;78.19;100781.31;5079387;28;20212;-79
2022/12/13 10:38:58;;;;;;;24.35;12.65;;;;;;;-0.97;77.38;100780.81;5079368;28;20206;-80
2022/12/13 10:41:34;;;;;;;22.65;13.95;;;;;;;-1.01;78.20;100776.69;5080406;28;20184;-81
2022/12/13 10:44:24;;;;;;;16.25;11.30;;;;;;;-1.01;77.71;100782.00;5080238;28;20192;-79
2022/12/13 10:47:14;;;;;;;24.60;14.65;;;;;;;-1.01;77.42;100771.38;5080984;28;20214;-82
2022/12/13 10:49:52;;;;;;;16.13;10.25;;;;;;;-0.82;77.21;100768.03;5080880;28;20168;-80
2022/12/13 10:52:31;;;;;;;20.58;11.00;;;;;;;-0.66;77.06;100773.69;5081324;28;20251;-81
2022/12/13 10:55:03;;;;;;;19.00;12.18;;;;;;;-0.71;76.92;100768.75;5081007;28;20230;-81
2022/12/13 10:57:53;;;;;;;21.98;12.85;;;;;;;-0.69;76.32;100772.13;5084137;28;20171;-78
2022/12/13 11:00:37;;;;;;;19.17;10.77;;;;;;;-0.64;76.77;100767.28;5095067;28;20176;-79
2022/12/13 11:03:07;;;;;;;19.45;11.25;;;;;;;-0.53;76.15;100764.50;5092432;28;20176;-80
2022/12/13 11:05:39;;;;;;;18.77;11.48;;;;;;;-0.52;75.91;100771.50;5087000;28;20216;-81
2022/12/13 11:08:21;;;;;;;20.02;11.23;;;;;;;-0.45;76.31;100772.66;5060173;28;20200;-81
2022/12/13 11:10:59;;;;;;;19.27;11.10;;;;;;;-0.34;75.60;100773.53;5060198;28;20173;-81
2022/12/13 11:13:35;;;;;;;18.20;10.60;;;;;;;-0.61;75.18;100766.16;5060801;28;20181;-81
2022/12/13 11:16:22;;;;;;;20.60;12.27;;;;;;;-0.47;75.98;100758.66;5059934;28;20206;-80
2022/12/13 11:18:54;;;;;;;30.30;11.85;;;;;;;-0.65;75.58;100754.94;5060092;28;20188;-81
2022/12/13 11:21:31;;;;;;;16.25;11.50;;;;;;;-0.71;75.38;100760.78;5060500;28;20184;-80
2022/12/13 11:24:48;;;;;;;12.77;8.52;;;;;;;-0.71;75.55;100767.91;5058896;28;20443;-79
2022/12/13 11:31:23;;;;;;;19.13;12.48;;;;;;;-0.57;75.65;100757.75;5041420;28;20200;-80
2022/12/13 11:34:03;;;;;;;22.52;10.35;;;;;;;-0.63;74.99;100752.97;5053160;28;20190;-82
2022/12/13 11:36:43;;;;;;;16.58;10.23;;;;;;;-0.77;75.94;100757.81;5069029;28;20232;-81
2022/12/13 11:39:21;;;;;;;15.00;8.77;;;;;;;-0.61;75.26;100758.16;5061374;28;20368;-79
2022/12/13 11:41:56;;;;;;;18.15;10.10;;;;;;;-0.50;75.06;100748.28;5061695;28;20188;-79
2022/12/13 11:44:42;;;;;;;17.17;11.23;;;;;;;-0.50;75.27;100758.94;5073882;28;20179;-79
2022/12/13 11:47:31;;;;;;;23.20;12.73;;;;;;;-0.47;74.40;100749.81;5074358;28;20185;-79
2022/12/13 11:50:14;;;;;;;19.50;11.50;;;;;;;-0.43;73.98;100752.06;5078097;28;20207;-81
2022/12/13 11:53:22;;;;;;;21.63;10.02;;;;;;;-0.45;74.13;100755.88;5080908;28;20228;-81
2022/12/13 11:55:59;;;;;;;20.55;10.18;;;;;;;-0.38;74.12;100748.16;5071618;28;20201;-81
2022/12/13 11:58:35;;;;;;;21.73;12.50;;;;;;;-0.44;74.00;100746.91;5070713;28;20168;-81
2022/12/13 12:01:38;;;;;;;12.90;9.10;;;;;;;-0.25;73.61;100751.44;5094652;28;20179;-82
2022/12/13 12:04:19;;;;;;;20.02;9.68;;;;;;;-0.39;73.96;100757.16;5093862;28;20250;-79
2022/12/13 12:06:57;;;;;;;16.23;9.77;;;;;;;-0.30;73.48;100757.19;5091358;28;20196;-79
2022/12/13 12:09:54;;;;;;;13.07;9.32;;;;;;;-0.35;73.20;100761.22;5089489;28;20233;-81
2022/12/13 12:12:31;;;;;;;23.67;9.52;;;;;;;-0.31;73.29;100762.63;5084111;28;20566;-81
2022/12/13 12:15:06;;;;;;;17.45;8.57;;;;;;;-0.21;73.19;100764.34;5082654;28;20238;-80
2022/12/13 12:17:45;;;;;;;18.75;9.02;;;;;;;-0.27;72.40;100764.03;5082133;28;20187;-80
2022/12/13 12:20:19;;;;;;;15.10;8.50;;;;;;;-0.32;71.99;100760.94;5084484;28;20253;-80
2022/12/13 12:23:04;;;;;;;14.88;10.80;;;;;;;-0.44;72.49;100758.38;5084908;28;20255;-80
2022/12/13 12:25:44;;;;;;;20.80;10.63;;;;;;;-0.52;73.50;100755.56;5085392;28;20208;-81
2022/12/13 12:28:26;;;;;;;25.02;10.88;;;;;;;-0.50;73.42;100752.78;5083639;28;20231;-81
2022/12/13 12:31:05;;;;;;;17.40;9.55;;;;;;;-0.56;73.31;100759.47;5084282;28;20179;-82
2022/12/13 12:33:47;;;;;;;17.77;9.25;;;;;;;-0.48;73.31;100756.13;5072835;28;20181;-82
2022/12/13 12:36:38;;;;;;;16.42;11.45;;;;;;;-0.37;73.89;100765.81;5064438;28;20241;-81
2022/12/13 12:39:34;;;;;;;19.55;10.88;;;;;;;-0.41;72.86;100757.28;5067839;28;20232;-82
2022/12/13 12:42:34;;;;;;;15.30;10.38;;;;;;;-0.43;73.38;100757.41;5085741;28;20695;-80
2022/12/13 12:45:48;;;;;;;15.27;9.02;;;;;;;-0.23;73.56;100757.44;5086580;28;20207;-82
2022/12/13 12:48:53;;;;;;;17.92;11.07;;;;;;;-0.20;72.67;100754.53;5085229;28;20257;-84
2022/12/13 12:51:39;;;;;;;9.63;8.77;;;;;;;-0.27;72.68;100748.91;5086396;28;20172;-82
2022/12/13 12:54:26;;;;;;;19.00;11.32;;;;;;;-0.14;73.16;100748.66;5082913;28;20187;-83
2022/12/13 12:57:09;;;;;;;17.08;10.60;;;;;;;-0.19;72.66;100740.25;5083160;28;20621;-82
2022/12/13 12:59:53;;;;;;;17.75;14.43;;;;;;;-0.16;72.68;100745.31;5087151;28;20222;-81
2022/12/13 13:02:36;;;;;;;21.20;11.30;;;;;;;0.02;73.37;100742.81;5085397;28;20570;-82
2022/12/13 13:41:49;;;;;;;13.35;8.23;;;;;;;-0.07;74.18;100747.13;5065774;28;20185;-80
2022/12/13 13:44:48;;;;;;;12.57;8.85;;;;;;;0.02;73.27;100748.97;5064953;28;20192;-80
2022/12/13 13:52:30;;;;;;;11.13;8.90;;;;;;;-0.26;72.70;100765.72;5063049;28;20223;-83
2022/12/13 13:56:08;;;;;;;16.48;8.90;;;;;;;-0.22;72.86;100761.78;5061665;28;20213;-80
2022/12/13 14:02:45;;;;;;;23.33;11.40;;;;;;;-0.21;73.00;100760.84;5040834;28;20197;-81
2022/12/13 14:05:50;;;;;;;16.42;7.78;;;;;;;-0.18;73.46;100752.56;5076185;28;20223;-81
2022/12/13 14:08:38;;;;;;;20.67;11.57;;;;;;;-0.06;73.16;100748.81;5037889;28;20227;-81
2022/12/13 14:23:04;;;;;;;19.15;9.82;;;;;;;-0.10;73.76;100739.44;4980159;28;20279;-81
2022/12/13 14:26:51;;;;;;;15.48;8.13;;;;;;;-0.01;72.83;100746.59;5055671;28;20251;-82
2022/12/13 14:41:01;;;;;;;17.73;9.90;;;;;;;-0.20;73.68;100751.88;5024269;28;20216;-78
2022/12/13 14:44:58;;;;;;;20.98;10.90;;;;;;;-0.16;73.54;100743.50;5055145;28;20215;-82
2022/12/13 14:47:59;;;;;;;23.85;11.02;;;;;;;-0.21;74.28;100737.75;5079669;28;20215;-80
2022/12/13 14:51:03;;;;;;;18.23;10.88;;;;;;;0.01;73.38;100744.63;5078904;28;20261;-81
2022/12/13 14:54:07;;;;;;;20.58;12.07;;;;;;;-0.56;74.39;100747.97;5080660;28;20678;-81
2022/12/13 14:56:56;;;;;;;14.90;8.90;;;;;;;-0.64;75.88;100753.97;5083204;28;20172;-79
2022/12/13 14:59:26;;;;;;;17.63;9.98;;;;;;;-0.21;74.51;100747.53;5076426;28;20227;-79
2022/12/13 15:01:59;;;;;;;15.57;9.55;;;;;;;-0.19;73.99;100745.56;5077233;28;20169;-80
2022/12/13 15:04:31;;;;;;;19.88;9.65;;;;;;;-0.17;74.28;100743.63;5076635;28;20181;-81
2022/12/13 15:07:06;;;;;;;23.52;11.35;;;;;;;-0.01;74.19;100743.94;5077440;28;20165;-79
2022/12/13 15:09:37;;;;;;;18.98;11.23;;;;;;;0.06;73.24;100750.38;5077362;28;20180;-81
2022/12/13 15:12:13;;;;;;;17.05;9.95;;;;;;;-0.09;74.05;100749.94;5077476;28;20175;-79
2022/12/13 15:15:01;;;;;;;13.60;9.15;;;;;;;-0.06;73.23;100747.00;5095304;28;20212;-82
2022/12/13 15:17:42;;;;;;;14.15;9.70;;;;;;;-0.09;73.30;100739.28;5096919;28;20266;-80
2022/12/13 15:20:27;;;;;;;14.10;7.75;;;;;;;-0.05;72.87;100747.84;5086995;28;20210;-80
2022/12/13 15:23:12;;;;;;;12.88;9.10;;;;;;;0.06;72.93;100745.03;5065384;28;20203;-82
2022/12/13 15:25:49;;;;;;;12.20;8.05;;;;;;;0.06;72.34;100744.22;5067835;28;20620;-80
2022/12/13 15:28:20;;;;;;;15.38;9.75;;;;;;;-0.10;73.63;100750.09;5071498;28;20273;-79
2022/12/13 15:30:51;;;;;;;14.27;8.90;;;;;;;-0.12;73.65;100752.88;5097702;28;20163;-81
2022/12/13 15:33:23;;;;;;;16.40;8.15;;;;;;;0.11;72.11;100758.78;5100517;28;20218;-80
2022/12/13 15:36:09;;;;;;;16.33;10.20;;;;;;;0.10;72.47;100757.09;5100955;28;20221;-81
2022/12/13 15:38:43;;;;;;;11.25;7.45;;;;;;;-0.06;72.97;100762.13;5097424;28;20639;-79
2022/12/13 15:41:17;;;;;;;14.98;6.93;;;;;;;0.02;72.44;100756.94;5093929;28;20172;-81
2022/12/13 15:43:50;;;;;;;9.65;7.35;;;;;;;-0.02;71.14;100753.72;5089873;28;20638;-82
2022/12/13 15:46:26;;;;;;;12.77;8.02;;;;;;;0.04;72.14;100751.50;5088863;28;20203;-81
2022/12/13 15:48:58;;;;;;;11.27;7.35;;;;;;;0.03;72.16;100750.66;5087921;28;20233;-83
2022/12/13 15:51:29;;;;;;;14.40;8.55;;;;;;;0.02;72.29;100746.31;5088591;28;20251;-83
2022/12/13 15:54:17;;;;;;;10.10;7.88;;;;;;;-0.03;72.25;100748.53;5087834;28;20180;-81
2022/12/13 15:57:01;;;;;;;31.48;14.98;;;;;;;-0.18;73.75;100752.56;5087328;28;20214;-82
2022/12/13 15:59:32;;;;;;;17.83;9.05;;;;;;;0.00;73.33;100756.25;5079889;28;20173;-82
2022/12/13 16:02:03;;;;;;;20.85;11.52;;;;;;;-0.07;72.78;100747.13;5082101;28;20200;-79
2022/12/13 16:04:33;;;;;;;23.67;10.07;;;;;;;-0.16;72.85;100748.81;5080140;28;20192;-80
2022/12/13 16:07:04;;;;;;;15.23;9.35;;;;;;;-0.10;72.67;100745.56;5080262;28;20176;-81
2022/12/13 16:09:37;;;;;;;13.70;8.00;;;;;;;0.08;72.43;100745.75;5086998;28;20234;-81
2022/12/13 16:12:07;;;;;;;14.63;7.88;;;;;;;-0.15;71.14;100745.19;5061931;28;20173;-81
2022/12/13 16:14:42;;;;;;;19.45;8.10;;;;;;;-0.19;72.48;100745.56;5057350;28;20225;-82
2022/12/13 16:17:23;;;;;;;10.15;5.70;;;;;;;-0.29;71.85;100729.59;5050490;28;20300;-81
2022/12/13 16:19:54;;;;;;;8.60;6.30;;;;;;;-0.04;71.26;100738.88;5049366;28;20233;-81
2022/12/13 16:22:25;;;;;;;12.13;5.80;;;;;;;-0.06;70.33;100738.19;5051151;28;20242;-81
2022/12/13 16:24:55;;;;;;;9.75;5.45;;;;;;;-0.25;70.76;100740.81;5098982;28;20200;-81
2022/12/13 16:27:24;;;;;;;14.13;7.57;;;;;;;-0.43;70.22;100737.94;5099841;28;20200;-80
2022/12/13 16:29:54;;;;;;;26.73;8.05;;;;;;;-0.47;70.44;100742.69;5099623;28;20221;-81
2022/12/13 16:32:23;;;;;;;17.00;6.82;;;;;;;-0.55;69.37;100734.56;5076334;28;20189;-82
2022/12/13 16:34:53;;;;;;;6.93;4.80;;;;;;;-0.65;69.76;100728.38;5068210;28;20334;-82
2022/12/13 16:37:26;;;;;;;15.27;6.70;;;;;;;-0.89;70.66;100725.19;5064321;28;20263;-81
2022/12/13 16:40:00;;;;;;;15.40;6.93;;;;;;;-0.99;72.29;100729.63;5065818;28;20192;-82
2022/12/13 16:42:30;;;;;;;19.75;9.93;;;;;;;-1.08;73.56;100727.75;5065469;28;20265;-81
2022/12/13 16:44:59;;;;;;;13.90;8.10;;;;;;;-1.14;73.31;100725.63;5064828;28;20205;-82
2022/12/13 16:47:49;;;;;;;12.60;6.25;;;;;;;-1.38;73.61;100728.53;5066042;28;20177;-82
2022/12/13 16:50:20;;;;;;;18.80;9.20;;;;;;;-1.37;74.61;100732.91;5070328;28;20243;-80
2022/12/13 16:52:52;;;;;;;17.50;9.65;;;;;;;-1.41;75.67;100724.34;5070751;28;20581;-80
2022/12/13 16:55:21;;;;;;;19.65;10.73;;;;;;;-1.41;76.12;100724.34;5066619;28;20250;-80
2022/12/13 16:57:59;;;;;;;15.07;9.13;;;;;;;-1.44;75.66;100721.94;5063832;28;20193;-82
2022/12/13 17:00:29;;;;;;;13.13;9.10;;;;;;;-1.48;75.46;100722.34;5065488;28;20201;-83
2022/12/13 17:09:36;;;;;;;20.27;8.55;;;;;;;-1.87;78.63;100722.03;5087579;28;20224;-81
2022/12/13 17:12:06;;;;;;;21.13;10.48;;;;;;;-1.64;78.50;100728.06;5086392;28;20235;-82
2022/12/13 17:14:35;;;;;;;15.88;10.40;;;;;;;-1.72;79.14;100719.94;5080591;28;20667;-83
2022/12/13 17:17:05;;;;;;;27.65;11.30;;;;;;;-1.72;79.49;100724.38;5068519;28;20164;-83
2022/12/13 17:19:34;;;;;;;11.52;8.85;;;;;;;-1.80;80.27;100728.53;5067085;28;20195;-82
2022/12/13 17:22:05;;;;;;;19.10;12.00;;;;;;;-1.76;79.82;100726.47;5076179;28;20184;-81
2022/12/13 17:36:11;;;;;;;13.38;8.45;;;;;;;-2.05;80.69;100720.06;5063033;28;20200;-83
2022/12/13 18:06:35;;;;;;;16.23;10.30;;;;;;;-2.45;81.07;100706.53;5021832;28;20217;-82
2022/12/13 18:09:07;;;;;;;15.10;10.80;;;;;;;-2.42;80.82;100709.78;5025868;28;20198;-80
2022/12/13 18:13:05;;;;;;;12.25;9.60;;;;;;;-2.48;81.36;100699.69;5002259;28;20201;-83
2022/12/13 18:16:35;;;;;;;15.60;9.23;;;;;;;-2.51;81.23;100701.72;5013032;28;20219;-82
2022/12/13 18:19:11;;;;;;;14.38;9.40;;;;;;;-2.41;81.28;100706.16;5016211;28;20217;-82
2022/12/13 18:29:24;;;;;;;16.88;11.35;;;;;;;-2.60;82.33;100711.25;5011142;28;20217;-83
2022/12/13 18:32:24;;;;;;;13.02;9.80;;;;;;;-2.57;82.71;100699.59;5041850;28;20257;-83
2022/12/13 18:34:54;;;;;;;14.00;8.48;;;;;;;-2.68;82.26;100698.66;5074865;28;20227;-80
2022/12/13 18:37:24;;;;;;;16.67;10.57;;;;;;;-2.69;84.12;100706.69;5085162;28;20261;-80
2022/12/13 18:40:14;;;;;;;19.20;9.38;;;;;;;-2.72;83.86;100712.25;5072506;28;20212;-81
2022/12/13 18:43:38;;;;;;;19.95;10.40;;;;;;;-2.72;83.30;100705.16;5066596;28;20180;-83
2022/12/13 18:47:02;;;;;;;17.75;9.93;;;;;;;-2.72;83.69;100702.50;5067283;28;20212;-81
2022/12/13 21:08:49;;;;;;;13.63;8.18;;;;;;;-3.73;85.03;100679.56;5167404;22;20362;-70
2022/12/13 21:10:10;;;;;;;18.08;10.05;;;;;;;-1.87;82.82;100678.75;5090864;28;20219;-70
2022/12/13 21:12:39;;;;;;;11.13;8.27;;;;;;;-2.31;80.03;100677.97;5084979;28;20207;-71
2022/12/13 21:15:09;;;;;;;18.05;9.13;;;;;;;-2.94;79.67;100675.19;5108690;28;20217;-69
2022/12/13 21:17:38;;;;;;;12.82;8.30;;;;;;;-3.27;78.66;100662.78;5089317;28;20227;-71
2022/12/13 21:20:08;;;;;;;18.55;10.13;;;;;;;-3.54;79.95;100655.19;5082025;28;20185;-72
2022/12/13 21:25:35;;;;;;;15.55;10.90;;;;;;;-3.65;81.10;100653.38;5053513;28;20589;-73
2022/12/13 21:28:06;;;;;;;19.92;8.52;;;;;;;-3.74;80.59;100647.94;5055197;28;20192;-72
2022/12/13 21:30:36;;;;;;;15.10;8.80;;;;;;;-3.77;80.27;100656.09;5054845;28;20617;-72
2022/12/13 21:33:07;;;;;;;10.93;6.20;;;;;;;-4.00;81.15;100648.13;5056315;28;20247;-71
2022/12/13 21:35:36;;;;;;;13.73;7.70;;;;;;;-3.98;81.75;100650.66;5049157;28;20263;-72
2022/12/13 21:38:05;;;;;;;19.55;9.95;;;;;;;-4.06;81.47;100645.91;5035372;28;20368;-73
2022/12/13 21:40:39;;;;;;;12.25;7.38;;;;;;;-4.13;82.08;100647.34;5034653;28;20201;-71
2022/12/13 21:43:08;;;;;;;20.17;8.60;;;;;;;-4.08;81.62;100652.28;5048690;28;20275;-71
2022/12/13 21:45:37;;;;;;;15.80;8.25;;;;;;;-4.13;81.47;100646.50;5054726;28;20272;-72
2022/12/13 21:48:06;;;;;;;16.25;9.20;;;;;;;-4.19;82.18;100647.81;5054804;28;20578;-72
2022/12/13 21:50:36;;;;;;;16.58;9.50;;;;;;;-4.34;82.85;100640.16;5047623;28;20643;-71
2022/12/13 21:53:05;;;;;;;9.38;5.25;;;;;;;-4.51;83.23;100633.50;5035211;28;20220;-71
2022/12/13 21:55:42;;;;;;;14.18;8.00;;;;;;;-4.35;84.21;100631.41;5048232;28;20284;-70
2022/12/13 22:01:02;;;;;;;12.43;6.80;;;;;;;-4.40;84.58;100625.59;5034502;28;20287;-72
2022/12/13 22:04:23;;;;;;;25.33;7.70;;;;;;;-4.62;84.91;100634.28;5034605;28;20284;-72
2022/12/13 22:06:52;;;;;;;12.55;7.25;;;;;;;-4.63;85.38;100627.31;5039337;28;20325;-72
2022/12/13 22:09:21;;;;;;;11.20;8.15;;;;;;;-4.51;85.90;100626.41;5049112;28;20381;-72